Time;durP1;ratioP1;P1;durP2;ratioP2;P2;SDS_P1;SDS_P2;PMS_P1;PMS_P2;Temp;Humidity;BMP_temperature;BMP_pressure;BME280_temperature;BME280_humidity;BME280_pressure;Samples;Min_cycle;Max_cycle;Signal;HPM_P1;HPM_P2
2023/08/22 08:48:22;;;;;;;9.82;4.88;;;;;;;21.05;100.00;101882.03;5089895;27;20378;-69
2023/08/22 08:50:49;;;;;;;11.10;4.93;;;;;;;21.14;100.00;101881.50;5094333;28;20496;-71
2023/08/22 08:53:14;;;;;;;10.95;4.15;;;;;;;21.20;100.00;101883.16;5098110;28;20056;-70
2023/08/22 08:55:41;;;;;;;14.05;4.50;;;;;;;21.25;100.00;101889.50;5089719;28;20070;-70
2023/08/22 08:58:09;;;;;;;10.27;4.25;;;;;;;21.23;100.00;101888.13;5071549;28;20040;-70
2023/08/22 09:00:36;;;;;;;12.15;4.75;;;;;;;21.24;100.00;101893.38;5068298;28;20414;-70
2023/08/22 09:03:02;;;;;;;10.40;4.60;;;;;;;21.30;100.00;101894.19;5070738;28;20032;-70
2023/08/22 09:05:29;;;;;;;17.05;5.10;;;;;;;21.30;100.00;101905.19;5089831;28;20391;-70
2023/08/22 09:07:55;;;;;;;9.40;4.60;;;;;;;21.30;100.00;101894.19;5099061;28;20032;-70
2023/08/22 09:10:34;;;;;;;9.82;5.80;;;;;;;21.34;100.00;101886.22;5110202;28;20441;-70
2023/08/22 09:13:03;;;;;;;11.75;6.40;;;;;;;21.35;100.00;101888.69;5109943;28;20462;-69
2023/08/22 09:15:30;;;;;;;13.60;7.00;;;;;;;21.37;100.00;101889.25;5110278;28;20031;-70
2023/08/22 09:17:56;;;;;;;14.90;7.22;;;;;;;21.36;100.00;101895.88;5109716;28;20027;-70
2023/08/22 09:20:22;;;;;;;14.88;7.35;;;;;;;21.37;100.00;101892.00;5096862;28;20517;-70
2023/08/22 09:22:47;;;;;;;14.00;7.18;;;;;;;21.39;100.00;101898.09;5089353;28;20034;-70
2023/08/22 09:25:14;;;;;;;14.73;7.47;;;;;;;21.39;100.00;101889.81;5089582;28;20028;-70
2023/08/22 09:27:39;;;;;;;14.80;7.70;;;;;;;21.43;100.00;101892.84;5066118;28;20111;-70
2023/08/22 09:30:06;;;;;;;14.60;7.28;;;;;;;21.41;100.00;101895.88;5070611;28;20123;-70
2023/08/22 09:32:31;;;;;;;17.00;7.10;;;;;;;21.39;100.00;101892.56;5081840;28;20028;-70
2023/08/22 09:35:00;;;;;;;13.70;7.45;;;;;;;21.39;100.00;101888.97;5066917;28;20040;-70
2023/08/22 09:37:33;;;;;;;18.13;7.32;;;;;;;21.43;100.00;101885.41;5068963;28;20527;-71
2023/08/22 09:39:59;;;;;;;14.63;6.60;;;;;;;21.51;100.00;101884.06;5068659;28;20119;-70
2023/08/22 09:42:29;;;;;;;18.98;7.22;;;;;;;21.69;100.00;101885.44;5052937;28;20476;-70
2023/08/22 09:44:58;;;;;;;17.30;7.70;;;;;;;21.79;100.00;101894.84;5057984;28;20033;-70
2023/08/22 09:47:27;;;;;;;14.43;6.75;;;;;;;21.86;100.00;101906.38;5049996;28;20049;-70
2023/08/22 09:49:56;;;;;;;16.23;6.50;;;;;;;21.85;100.00;101902.81;5087478;28;20028;-70
2023/08/22 09:52:24;;;;;;;15.30;6.22;;;;;;;21.93;99.62;101899.50;5089053;28;20029;-70
2023/08/22 09:54:50;;;;;;;12.82;5.85;;;;;;;21.95;98.42;101899.22;5070423;28;20031;-70
2023/08/22 09:57:17;;;;;;;15.82;5.75;;;;;;;21.89;93.06;101905.84;5088865;28;20028;-70
2023/08/22 09:59:45;;;;;;;11.48;5.18;;;;;;;21.89;91.67;101911.34;5075102;28;20029;-70
2023/08/22 10:02:11;;;;;;;8.75;5.05;;;;;;;21.82;90.67;101902.56;5069856;28;20032;-69
2023/08/22 10:04:36;;;;;;;9.32;4.13;;;;;;;21.83;88.55;101899.53;5070706;28;20032;-70
2023/08/22 10:07:02;;;;;;;9.13;3.80;;;;;;;21.86;82.76;101895.38;5074566;28;20463;-69
2023/08/22 10:09:27;;;;;;;11.00;3.80;;;;;;;21.86;78.12;101896.22;5056886;28;20037;-70
2023/08/22 10:12:06;;;;;;;9.20;4.40;;;;;;;21.97;82.05;101898.94;5056847;28;20028;-71
2023/08/22 10:14:33;;;;;;;9.30;3.92;;;;;;;22.03;85.00;101895.91;5074707;28;20028;-70
2023/08/22 10:16:59;;;;;;;9.60;3.83;;;;;;;22.06;79.58;101898.13;5074707;28;20032;-70
2023/08/22 10:19:25;;;;;;;8.35;3.20;;;;;;;22.17;76.21;101898.94;5054405;28;20381;-70
2023/08/22 10:21:53;;;;;;;10.27;3.55;;;;;;;22.32;82.17;101892.59;5056047;28;20044;-71
2023/08/22 10:24:38;;;;;;;11.20;3.88;;;;;;;22.40;81.67;101889.25;5068938;28;20392;-71
2023/08/22 10:27:04;;;;;;;6.05;3.50;;;;;;;22.47;79.18;101892.56;5037312;28;20056;-70
2023/08/22 10:29:35;;;;;;;13.55;3.75;;;;;;;22.42;79.18;101897.25;5059456;28;20024;-70
2023/08/22 10:32:00;;;;;;;8.30;3.33;;;;;;;22.37;77.33;101884.28;5065111;28;20032;-69
2023/08/22 10:34:34;;;;;;;14.00;2.90;;;;;;;22.38;78.94;101891.47;5074556;28;20031;-70
2023/08/22 10:37:01;;;;;;;6.45;2.83;;;;;;;22.41;78.81;101890.91;5074129;28;20263;-70
2023/08/22 10:39:39;;;;;;;6.88;2.40;;;;;;;22.52;79.01;101888.94;5054234;28;20048;-72
2023/08/22 10:42:17;;;;;;;8.95;2.97;;;;;;;22.64;75.45;101888.63;5054469;28;20035;-71
2023/08/22 10:44:47;;;;;;;9.10;2.95;;;;;;;22.86;74.33;101884.69;5055902;28;20439;-71
2023/08/22 10:47:17;;;;;;;6.93;2.80;;;;;;;22.92;69.32;101883.56;5036002;28;20152;-72
2023/08/22 10:49:47;;;;;;;5.65;2.50;;;;;;;22.98;73.56;101883.25;5054596;28;20388;-70
2023/08/22 10:52:13;;;;;;;10.52;3.10;;;;;;;22.91;68.12;101877.22;5054385;28;20067;-72
2023/08/22 10:55:05;;;;;;;9.25;3.47;;;;;;;22.84;71.22;101884.97;5054569;28;20036;-70
2023/08/22 10:57:32;;;;;;;6.75;2.90;;;;;;;22.93;70.24;101883.28;5054219;28;20122;-71
2023/08/22 11:00:34;;;;;;;7.35;2.70;;;;;;;23.11;68.39;101887.34;5066638;28;20055;-72
2023/08/22 11:02:59;;;;;;;7.75;2.30;;;;;;;23.16;70.89;101884.56;5069841;28;20076;-72
2023/08/22 11:05:26;;;;;;;5.65;2.53;;;;;;;23.23;64.83;101883.41;5074044;28;20028;-71
2023/08/22 11:07:52;;;;;;;5.60;2.30;;;;;;;23.22;60.06;101873.47;5073891;28;20067;-69
2023/08/22 11:10:20;;;;;;;6.10;1.52;;;;;;;23.22;61.95;101877.09;5054732;28;20052;-70
2023/08/22 11:12:46;;;;;;;6.20;1.63;;;;;;;23.27;57.47;101885.31;5074193;28;20410;-70
2023/08/22 11:15:13;;;;;;;6.53;1.20;;;;;;;23.26;55.55;101882.84;5063614;28;20418;-69
2023/08/22 11:17:43;;;;;;;6.57;1.35;;;;;;;23.29;58.41;101883.09;5073846;28;20070;-71
2023/08/22 11:20:22;;;;;;;5.32;1.38;;;;;;;23.30;55.64;101895.78;5073518;28;20025;-69
2023/08/22 11:22:47;;;;;;;9.52;1.20;;;;;;;23.28;53.64;101888.91;5068580;28;20500;-72
2023/08/22 11:25:13;;;;;;;3.38;1.00;;;;;;;23.17;49.96;101894.50;5055369;28;20029;-70
2023/08/22 11:27:40;;;;;;;3.65;0.93;;;;;;;23.17;51.25;101891.75;5055581;28;20063;-71
2023/08/22 11:30:07;;;;;;;4.82;1.30;;;;;;;23.17;52.66;101893.66;5064946;28;20033;-71
2023/08/22 11:32:35;;;;;;;2.17;0.82;;;;;;;23.06;50.75;101895.63;5055646;28;20111;-70
2023/08/22 11:35:05;;;;;;;8.70;0.98;;;;;;;23.05;52.04;101899.47;5072958;28;20056;-72
2023/08/22 11:37:36;;;;;;;3.75;1.20;;;;;;;22.98;52.05;101893.47;5073161;28;20046;-69
2023/08/22 11:40:08;;;;;;;4.63;1.08;;;;;;;23.01;53.49;101895.66;5073184;28;20024;-69
2023/08/22 11:42:34;;;;;;;2.60;1.02;;;;;;;22.97;51.82;101900.91;5055416;28;20039;-71
2023/08/22 11:45:21;;;;;;;2.38;0.95;;;;;;;22.97;54.70;101902.84;5037601;28;20067;-71
2023/08/22 11:47:47;;;;;;;2.13;0.90;;;;;;;22.91;51.95;101904.81;5053295;28;20048;-71
2023/08/22 11:50:27;;;;;;;1.67;0.70;;;;;;;22.89;53.27;101897.91;5054179;28;20037;-69
2023/08/22 11:53:13;;;;;;;1.52;0.80;;;;;;;22.82;52.70;101899.03;5061374;28;20028;-69
2023/08/22 11:55:41;;;;;;;11.25;1.42;;;;;;;22.75;53.59;101900.47;5054010;28;20056;-71
2023/08/22 11:58:11;;;;;;;71.57;5.53;;;;;;;22.72;53.04;101901.88;5054935;28;20020;-72
2023/08/22 12:00:36;;;;;;;5.60;1.17;;;;;;;22.68;54.65;101892.50;5070720;28;20040;-70
2023/08/22 12:03:05;;;;;;;3.10;0.77;;;;;;;22.70;54.88;101898.53;5071092;28;20032;-72
2023/08/22 12:05:41;;;;;;;2.50;1.20;;;;;;;22.65;54.69;101902.16;5050988;28;20033;-70
2023/08/22 12:08:06;;;;;;;50.38;4.25;;;;;;;22.75;57.38;101892.19;5053151;28;20025;-72
2023/08/22 12:10:39;;;;;;;17.63;2.33;;;;;;;22.76;56.39;101897.41;5069184;28;20024;-69
2023/08/22 12:13:05;;;;;;;8.15;1.42;;;;;;;22.74;54.25;101902.41;5072617;28;20270;-72
2023/08/22 12:15:31;;;;;;;57.03;4.45;;;;;;;22.71;54.66;101908.47;5054687;28;20041;-71
2023/08/22 12:17:58;;;;;;;12.82;1.60;;;;;;;22.73;56.52;101905.44;5071651;28;20020;-72
2023/08/22 12:20:23;;;;;;;8.63;1.60;;;;;;;22.76;55.84;101904.88;5072947;28;20032;-73
2023/08/22 12:22:48;;;;;;;26.08;2.85;;;;;;;22.75;55.97;101908.72;5064053;28;20530;-74
2023/08/22 12:25:14;;;;;;;38.10;3.30;;;;;;;22.75;56.80;101911.50;5032635;28;20068;-70
2023/08/22 12:27:39;;;;;;;8.77;1.60;;;;;;;22.73;57.53;101906.25;5058748;28;20047;-71
2023/08/22 12:30:06;;;;;;;22.02;2.00;;;;;;;22.72;57.88;101906.53;5054372;28;20082;-70
2023/08/22 12:32:31;;;;;;;8.93;2.03;;;;;;;22.73;57.99;101902.69;5063246;28;20029;-73
2023/08/22 12:34:57;;;;;;;5.78;1.70;;;;;;;22.72;58.38;101906.53;5056119;28;20096;-71
2023/08/22 12:37:22;;;;;;;5.88;1.77;;;;;;;22.70;58.91;101904.06;5062681;28;20033;-72
2023/08/22 12:39:47;;;;;;;4.45;2.20;;;;;;;22.63;58.08;101909.91;5054554;28;20384;-72
2023/08/22 12:42:13;;;;;;;7.80;1.83;;;;;;;22.61;59.98;101903.81;5034368;28;20115;-72
2023/08/22 12:44:38;;;;;;;6.22;2.33;;;;;;;22.61;61.49;101909.31;5052506;28;20085;-70
2023/08/22 12:47:03;;;;;;;3.55;1.90;;;;;;;22.58;61.18;101911.84;5051892;28;20452;-70
2023/08/22 12:49:29;;;;;;;6.57;1.90;;;;;;;22.58;62.29;101889.75;5052748;28;20029;-72
2023/08/22 12:51:54;;;;;;;4.47;2.08;;;;;;;22.55;62.65;101896.66;5069262;28;20107;-72
2023/08/22 12:54:19;;;;;;;6.50;2.33;;;;;;;22.59;66.39;101895.00;5083126;28;20040;-69
2023/08/22 12:56:45;;;;;;;14.05;3.00;;;;;;;22.59;62.99;101910.72;5078883;28;20063;-70
2023/08/22 12:59:10;;;;;;;7.30;2.63;;;;;;;22.55;62.75;101907.69;5078069;28;20115;-70
2023/08/22 13:01:36;;;;;;;11.25;2.63;;;;;;;22.56;64.06;101908.53;5065179;28;20118;-70
2023/08/22 13:04:14;;;;;;;6.85;2.47;;;;;;;22.55;63.49;101893.09;5092238;28;20146;-71
2023/08/22 13:06:40;;;;;;;7.28;2.40;;;;;;;22.51;63.32;101892.00;5092484;28;20028;-72
2023/08/22 13:09:10;;;;;;;4.25;2.35;;;;;;;22.56;65.28;101887.28;5081011;28;20075;-71
2023/08/22 13:11:39;;;;;;;4.47;2.40;;;;;;;22.62;64.97;101888.91;5054216;28;20078;-71
2023/08/22 13:14:09;;;;;;;7.70;2.65;;;;;;;22.75;63.97;101901.31;5048256;28;20043;-69
2023/08/22 13:16:35;;;;;;;7.40;2.00;;;;;;;22.83;62.52;101888.84;5034318;28;20033;-69
2023/08/22 13:19:01;;;;;;;6.60;2.30;;;;;;;22.92;61.56;101883.56;5052193;28;20033;-70
2023/08/22 13:21:26;;;;;;;4.70;2.10;;;;;;;23.05;62.02;101887.63;5056284;28;20064;-71
2023/08/22 13:23:53;;;;;;;5.97;1.95;;;;;;;23.16;60.55;101879.03;5066341;28;20070;-70
2023/08/22 13:26:18;;;;;;;7.25;2.30;;;;;;;23.16;58.92;101878.22;5071751;28;20036;-71
2023/08/22 13:28:44;;;;;;;7.07;2.03;;;;;;;23.30;61.24;101878.41;5071999;28;20079;-68
2023/08/22 13:31:10;;;;;;;5.35;2.20;;;;;;;23.25;60.10;101881.19;5071819;28;20028;-70
2023/08/22 13:33:35;;;;;;;5.43;2.60;;;;;;;23.21;60.51;101880.13;5069661;28;20047;-69
2023/08/22 13:36:01;;;;;;;6.43;2.42;;;;;;;23.20;60.65;101878.47;5060544;28;20021;-70
2023/08/22 13:38:26;;;;;;;10.27;2.50;;;;;;;23.14;60.53;101874.91;5075755;28;20024;-71
2023/08/22 13:40:51;;;;;;;5.07;2.33;;;;;;;23.21;64.09;101880.13;5074559;28;20033;-70
2023/08/22 13:43:17;;;;;;;3.75;2.20;;;;;;;23.17;60.95;101879.84;5075116;28;20024;-67
2023/08/22 13:45:42;;;;;;;4.90;2.42;;;;;;;23.14;59.63;101886.78;5074382;28;20032;-70
2023/08/22 13:48:09;;;;;;;3.85;2.10;;;;;;;23.17;60.92;101880.69;5074775;28;20044;-69
2023/08/22 13:50:34;;;;;;;18.02;3.00;;;;;;;23.21;60.28;101874.59;5070665;28;20028;-68
2023/08/22 13:52:59;;;;;;;5.80;2.30;;;;;;;23.17;61.92;101879.84;5058312;28;20039;-68
2023/08/22 13:55:24;;;;;;;5.03;2.25;;;;;;;23.16;60.75;101881.81;5037318;28;20029;-67
2023/08/22 13:57:50;;;;;;;9.23;2.67;;;;;;;23.13;61.24;101876.00;5055633;28;20029;-68
2023/08/22 14:00:15;;;;;;;6.68;2.50;;;;;;;23.17;61.40;101869.66;5055324;28;20025;-68
2023/08/22 14:02:41;;;;;;;6.85;2.70;;;;;;;23.12;60.03;101879.91;5060456;28;20384;-69
2023/08/22 14:05:06;;;;;;;7.00;2.70;;;;;;;23.13;61.15;101878.75;5074667;28;20075;-70
2023/08/22 14:07:32;;;;;;;6.90;2.72;;;;;;;23.15;63.45;101874.63;5067161;28;20511;-71
2023/08/22 14:09:57;;;;;;;8.02;2.72;;;;;;;23.13;61.17;101874.09;5036869;28;20033;-69
2023/08/22 14:12:22;;;;;;;7.05;2.80;;;;;;;23.14;62.30;101875.75;5054663;28;20082;-70
2023/08/22 14:14:48;;;;;;;4.95;2.30;;;;;;;23.15;61.68;101880.13;5055139;28;20041;-71
2023/08/22 14:17:13;;;;;;;7.05;2.65;;;;;;;23.09;62.42;101874.91;5054514;28;20077;-71
2023/08/22 14:19:38;;;;;;;7.03;3.03;;;;;;;23.10;60.88;101874.66;5039533;28;20226;-71
2023/08/22 14:22:04;;;;;;;5.43;2.92;;;;;;;23.05;61.18;101877.41;5066160;28;20028;-69
2023/08/22 14:24:29;;;;;;;6.57;3.10;;;;;;;23.01;60.33;101876.34;5060236;28;20020;-69
2023/08/22 14:26:54;;;;;;;6.25;3.20;;;;;;;22.98;62.08;101877.72;5072958;28;20481;-69
2023/08/22 14:29:20;;;;;;;6.78;3.00;;;;;;;22.98;63.63;101880.50;5068229;28;20025;-70
2023/08/22 14:31:45;;;;;;;6.72;3.10;;;;;;;22.98;62.71;101880.50;5039727;28;20029;-71
2023/08/22 14:34:13;;;;;;;10.40;3.35;;;;;;;23.01;64.75;101870.81;5036594;28;20480;-71
2023/08/22 14:36:39;;;;;;;6.63;3.25;;;;;;;23.11;65.44;101869.94;5038700;28;20025;-70
2023/08/22 14:39:04;;;;;;;7.43;3.15;;;;;;;23.17;71.39;101869.66;5054870;28;20111;-71
2023/08/22 14:41:30;;;;;;;11.90;3.45;;;;;;;23.20;66.00;101868.22;5055580;28;20039;-72
2023/08/22 14:43:56;;;;;;;9.52;4.65;;;;;;;23.20;62.38;101861.91;5054464;28;20388;-71
2023/08/22 14:46:21;;;;;;;12.05;3.72;;;;;;;23.19;64.89;101855.56;5054422;28;20128;-71
2023/08/22 14:48:47;;;;;;;10.05;3.60;;;;;;;23.17;63.93;101858.63;5074559;28;20448;-70
2023/08/22 14:51:12;;;;;;;6.70;3.10;;;;;;;23.17;67.50;101853.09;5073489;28;20467;-70
2023/08/22 14:53:38;;;;;;;9.80;3.95;;;;;;;23.17;63.26;101858.63;5062042;28;20065;-69
2023/08/22 14:56:05;;;;;;;11.13;4.05;;;;;;;23.11;64.80;101859.72;5063416;28;20032;-70
2023/08/22 14:58:43;;;;;;;8.02;3.63;;;;;;;23.17;65.36;101857.75;5073777;28;20039;-70
2023/08/22 15:01:10;;;;;;;7.13;3.33;;;;;;;23.14;65.77;101853.66;5035251;28;20025;-71
2023/08/22 15:03:36;;;;;;;8.25;3.20;;;;;;;23.12;70.25;101855.88;5062533;28;20032;-68
2023/08/22 15:06:02;;;;;;;18.90;3.72;;;;;;;23.16;66.47;101850.63;5072723;28;20032;-70
2023/08/22 15:08:30;;;;;;;10.00;3.47;;;;;;;23.16;66.09;101856.13;5056635;28;20032;-70
2023/08/22 15:10:56;;;;;;;8.55;3.30;;;;;;;23.15;64.50;101855.28;5055985;28;20028;-70
2023/08/22 15:13:21;;;;;;;9.77;3.50;;;;;;;23.17;64.48;101841.19;5073433;28;20062;-72
2023/08/22 15:15:47;;;;;;;7.82;3.35;;;;;;;23.21;63.37;101847.00;5073663;28;20033;-69
2023/08/22 15:18:12;;;;;;;9.60;3.80;;;;;;;23.25;62.30;101839.75;5071787;28;20031;-69
2023/08/22 15:20:38;;;;;;;7.65;3.13;;;;;;;23.56;61.69;101839.53;5073103;28;20024;-71
2023/08/22 15:23:04;;;;;;;9.13;3.42;;;;;;;24.05;60.61;101836.63;5066592;28;20024;-70
2023/08/22 15:25:32;;;;;;;7.32;3.10;;;;;;;24.79;58.18;101840.19;5043881;28;20044;-70
2023/08/22 15:27:58;;;;;;;6.70;3.55;;;;;;;25.14;53.22;101841.63;5070709;28;20521;-69
2023/08/22 15:30:24;;;;;;;7.30;3.38;;;;;;;25.53;53.14;101843.28;5054068;28;20035;-70
2023/08/22 15:32:49;;;;;;;7.55;3.30;;;;;;;25.94;51.20;101842.53;5072367;28;20016;-70
2023/08/22 15:35:14;;;;;;;7.40;3.50;;;;;;;26.16;49.85;101843.81;5072726;28;20115;-69
2023/08/22 15:37:40;;;;;;;10.18;3.50;;;;;;;26.25;50.16;101844.75;5072605;28;20124;-70
2023/08/22 15:40:05;;;;;;;9.20;3.28;;;;;;;26.43;50.66;101845.78;5065056;28;20464;-70
2023/08/22 15:42:34;;;;;;;8.23;3.50;;;;;;;26.42;49.33;101851.63;5070870;28;20040;-69
2023/08/22 15:45:00;;;;;;;9.07;3.53;;;;;;;26.32;49.62;101850.72;5048662;28;20032;-69
2023/08/22 15:47:26;;;;;;;8.18;3.50;;;;;;;26.57;48.83;101845.75;5062730;28;20078;-68
2023/08/22 15:49:52;;;;;;;8.48;3.25;;;;;;;26.57;48.97;101848.53;5063194;28;20452;-70
2023/08/22 15:52:18;;;;;;;7.68;3.60;;;;;;;26.70;49.88;101853.28;5072348;28;20025;-69
2023/08/22 15:54:44;;;;;;;8.60;3.40;;;;;;;26.76;48.71;101848.47;5085411;28;20133;-70
2023/08/22 15:57:10;;;;;;;8.73;3.53;;;;;;;26.74;48.90;101844.34;5091865;28;20157;-70
2023/08/22 15:59:35;;;;;;;6.40;3.30;;;;;;;26.80;49.26;101848.63;5092816;28;20111;-70
2023/08/22 16:02:01;;;;;;;8.27;3.50;;;;;;;26.80;48.60;101845.88;5079977;28;20129;-69
